createdAt,value
2018-12-09T00:00:24.090Z,44.00
2018-12-09T00:02:50.086Z,44.10
2018-12-09T00:05:16.094Z,44.10
2018-12-09T00:07:42.082Z,44.10
2018-12-09T00:10:08.103Z,44.10
2018-12-09T00:12:34.093Z,44.10
2018-12-09T00:15:00.077Z,44.10
2018-12-09T00:17:26.035Z,44.00
2018-12-09T00:19:51.995Z,44.10
2018-12-09T00:22:17.977Z,44.10
2018-12-09T00:24:43.967Z,44.10
2018-12-09T00:27:09.928Z,44.10
2018-12-09T00:29:35.910Z,44.00
2018-12-09T00:32:01.879Z,44.00
2018-12-09T00:34:27.860Z,44.00
2018-12-09T00:36:53.833Z,44.00
2018-12-09T00:39:19.815Z,44.00
2018-12-09T00:41:45.831Z,44.00
2018-12-09T00:44:11.789Z,44.00
2018-12-09T00:46:37.776Z,44.00
2018-12-09T00:49:03.794Z,44.10
2018-12-09T00:51:29.775Z,43.90
2018-12-09T00:53:55.765Z,44.00
2018-12-09T00:56:21.743Z,43.90
2018-12-09T00:58:47.719Z,43.90
2018-12-09T01:01:13.720Z,43.90
2018-12-09T01:03:39.749Z,44.00
2018-12-09T01:06:05.746Z,44.00
2018-12-09T01:08:31.758Z,44.60
2018-12-09T01:10:57.746Z,43.90
2018-12-09T01:13:23.717Z,44.70
2018-12-09T01:15:49.692Z,43.90
2018-12-09T01:18:15.673Z,44.10
2018-12-09T01:20:41.664Z,44.10
2018-12-09T01:23:07.641Z,44.00
2018-12-09T01:25:33.621Z,44.00
2018-12-09T01:27:59.608Z,44.00
2018-12-09T01:30:25.589Z,44.00
2018-12-09T01:32:51.548Z,44.00
2018-12-09T01:35:17.534Z,44.10
2018-12-09T01:37:43.645Z,44.10
2018-12-09T01:40:09.667Z,44.00
2018-12-09T01:42:35.659Z,44.10
2018-12-09T01:45:01.677Z,44.10
2018-12-09T01:47:27.753Z,44.10
2018-12-09T01:49:53.859Z,44.10
2018-12-09T01:52:19.860Z,44.10
2018-12-09T01:54:45.831Z,44.10
2018-12-09T01:57:11.829Z,44.20
2018-12-09T01:59:37.831Z,44.10
2018-12-09T02:02:04.442Z,44.10
2018-12-09T02:04:30.443Z,44.10
2018-12-09T02:06:56.399Z,44.10
2018-12-09T02:09:22.389Z,44.20
2018-12-09T02:11:48.370Z,44.10
2018-12-09T02:14:14.356Z,44.10
2018-12-09T02:16:40.336Z,44.80
2018-12-09T02:19:06.338Z,44.10
2018-12-09T02:21:32.309Z,44.10
2018-12-09T02:23:58.284Z,44.10
2018-12-09T02:26:24.273Z,44.10
2018-12-09T02:28:50.256Z,44.10
2018-12-09T02:31:16.204Z,44.10
2018-12-09T02:33:42.158Z,44.10
2018-12-09T02:36:08.158Z,44.10
2018-12-09T02:38:34.172Z,44.10
2018-12-09T02:41:00.616Z,44.10
2018-12-09T02:43:26.609Z,44.00
2018-12-09T02:45:52.723Z,44.00
2018-12-09T02:48:18.712Z,44.00
2018-12-09T02:50:44.682Z,44.00
2018-12-09T02:53:10.775Z,44.10
2018-12-09T02:55:36.735Z,44.10
2018-12-09T02:58:02.738Z,44.00
2018-12-09T03:00:28.703Z,44.00
2018-12-09T03:02:54.699Z,44.10
2018-12-09T03:05:20.685Z,44.10
2018-12-09T03:07:46.676Z,44.10
2018-12-09T03:10:12.776Z,44.10
2018-12-09T03:12:38.751Z,44.10
2018-12-09T03:15:04.835Z,44.20
2018-12-09T03:17:37.628Z,44.20
2018-12-09T03:20:03.642Z,44.10
2018-12-09T03:22:29.731Z,44.10
2018-12-09T03:24:55.724Z,44.10
2018-12-09T03:27:21.728Z,44.10
2018-12-09T03:29:47.710Z,44.10
2018-12-09T03:32:14.013Z,44.10
2018-12-09T03:34:40.021Z,44.10
2018-12-09T03:37:06.048Z,44.20
2018-12-09T03:39:32.205Z,44.10
2018-12-09T03:41:58.174Z,44.10
2018-12-09T03:44:24.203Z,44.10
2018-12-09T03:46:50.398Z,44.10
2018-12-09T03:49:16.360Z,44.20
2018-12-09T03:51:42.373Z,44.20
2018-12-09T03:54:08.346Z,44.10
2018-12-09T03:56:34.452Z,44.20
2018-12-09T03:59:00.557Z,44.20
2018-12-09T04:01:26.632Z,44.20
2018-12-09T04:03:52.784Z,44.20
2018-12-09T04:06:19.007Z,44.20
2018-12-09T04:08:44.968Z,44.20
2018-12-09T04:11:10.920Z,44.20
2018-12-09T04:13:37.417Z,44.20
2018-12-09T04:16:03.420Z,44.20
2018-12-09T04:18:29.397Z,44.20
2018-12-09T04:20:55.374Z,44.20
2018-12-09T04:23:21.384Z,44.30
2018-12-09T04:25:47.338Z,44.30
2018-12-09T04:28:13.536Z,44.20
2018-12-09T04:30:39.536Z,44.30
2018-12-09T04:33:05.496Z,44.30
2018-12-09T04:35:31.465Z,44.30
2018-12-09T04:37:57.448Z,44.30
2018-12-09T04:40:23.456Z,44.30
2018-12-09T04:42:49.453Z,44.30
2018-12-09T04:45:15.449Z,44.30
2018-12-09T04:47:41.421Z,44.30
2018-12-09T04:50:07.366Z,44.40
2018-12-09T04:52:33.369Z,44.40
2018-12-09T04:54:59.781Z,44.30
2018-12-09T04:57:25.779Z,44.40
2018-12-09T04:59:51.733Z,44.40
2018-12-09T05:02:17.692Z,44.40
2018-12-09T05:04:43.689Z,44.40
2018-12-09T05:07:09.688Z,44.40
2018-12-09T05:09:36.219Z,44.40
2018-12-09T05:12:02.174Z,44.40
2018-12-09T05:14:28.206Z,44.40
2018-12-09T05:16:54.190Z,44.40
2018-12-09T05:19:20.198Z,44.20
2018-12-09T05:21:46.168Z,44.30
2018-12-09T05:24:12.132Z,44.30
2018-12-09T05:26:38.166Z,44.40
2018-12-09T05:29:04.156Z,44.40
2018-12-09T05:31:30.140Z,44.40
2018-12-09T05:33:56.133Z,44.40
2018-12-09T05:36:22.128Z,45.20
2018-12-09T05:38:48.096Z,44.40
2018-12-09T05:41:14.086Z,44.40
2018-12-09T05:43:40.415Z,44.50
2018-12-09T05:46:06.399Z,44.50
2018-12-09T05:48:32.370Z,44.50
2018-12-09T05:50:58.667Z,44.50
2018-12-09T05:53:24.654Z,44.50
2018-12-09T05:55:50.705Z,44.50
2018-12-09T05:58:16.769Z,44.50
2018-12-09T06:00:42.760Z,44.50
2018-12-09T06:03:08.746Z,44.60
2018-12-09T06:05:35.151Z,44.50
2018-12-09T06:08:01.138Z,44.50
2018-12-09T06:10:27.134Z,44.50
2018-12-09T06:12:53.159Z,44.50
2018-12-09T06:15:19.143Z,44.50
2018-12-09T06:17:45.157Z,44.50
2018-12-09T06:20:11.247Z,44.40
2018-12-09T06:22:37.223Z,44.50
2018-12-09T06:25:03.192Z,44.40
2018-12-09T06:27:29.207Z,44.40
2018-12-09T06:29:55.189Z,44.40
2018-12-09T06:32:21.183Z,44.40
2018-12-09T06:34:47.183Z,44.40
2018-12-09T06:37:13.167Z,44.40
2018-12-09T06:39:39.152Z,44.40
2018-12-09T06:42:05.148Z,44.40
2018-12-09T06:44:31.135Z,44.40
2018-12-09T06:46:57.107Z,44.50
2018-12-09T06:49:23.127Z,44.00
2018-12-09T06:51:49.077Z,44.70
2018-12-09T06:54:15.087Z,44.90
2018-12-09T06:56:41.077Z,45.00
2018-12-09T06:59:07.086Z,44.50
2018-12-09T07:01:33.071Z,45.40
2018-12-09T07:03:59.078Z,45.60
2018-12-09T07:06:25.077Z,45.60
2018-12-09T07:08:51.070Z,45.40
2018-12-09T07:11:17.075Z,45.50
2018-12-09T07:13:43.073Z,45.70
2018-12-09T07:16:09.087Z,45.70
2018-12-09T07:18:35.383Z,45.60
2018-12-09T07:21:01.332Z,45.60
2018-12-09T07:23:27.315Z,45.60
2018-12-09T07:25:53.338Z,45.80
2018-12-09T07:28:19.326Z,45.70
2018-12-09T07:30:45.320Z,45.70
2018-12-09T07:33:11.727Z,45.80
2018-12-09T07:35:37.743Z,46.30
2018-12-09T07:38:03.699Z,46.90
2018-12-09T07:40:29.688Z,48.20
2018-12-09T07:42:55.675Z,49.00
2018-12-09T07:45:21.671Z,50.30
2018-12-09T07:47:47.959Z,51.00
2018-12-09T07:50:13.921Z,50.80
2018-12-09T07:52:39.914Z,51.50
2018-12-09T07:55:05.880Z,51.00
2018-12-09T07:57:31.934Z,50.80
2018-12-09T07:59:57.968Z,50.60
2018-12-09T08:02:23.994Z,50.80
2018-12-09T08:04:50.277Z,50.60
2018-12-09T08:07:16.404Z,50.60
2018-12-09T08:09:42.781Z,50.50
2018-12-09T08:12:15.872Z,50.40
2018-12-09T08:14:41.900Z,50.30
2018-12-09T08:17:08.003Z,50.20
2018-12-09T08:19:34.000Z,50.20
2018-12-09T08:21:59.985Z,50.20
2018-12-09T08:24:26.045Z,49.80
2018-12-09T08:26:52.066Z,49.70
2018-12-09T08:29:18.050Z,49.80
2018-12-09T08:31:44.020Z,49.70
2018-12-09T08:34:10.004Z,49.70
2018-12-09T08:36:35.970Z,49.50
2018-12-09T08:39:02.229Z,48.90
2018-12-09T08:41:28.290Z,48.50
2018-12-09T08:43:54.291Z,48.40
2018-12-09T08:46:20.283Z,48.40
2018-12-09T08:48:46.470Z,48.20
2018-12-09T08:51:12.489Z,48.10
2018-12-09T08:53:38.730Z,48.00
2018-12-09T08:56:04.771Z,47.90
2018-12-09T08:58:31.103Z,48.00
2018-12-09T09:00:57.236Z,47.90
2018-12-09T09:03:23.223Z,47.80
2018-12-09T09:05:49.278Z,47.90
2018-12-09T09:08:15.527Z,47.70
2018-12-09T09:10:41.600Z,47.70
2018-12-09T09:13:07.725Z,47.70
2018-12-09T09:15:34.066Z,47.70
2018-12-09T09:18:00.301Z,47.70
2018-12-09T09:20:26.377Z,47.50
2018-12-09T09:22:52.539Z,47.30
2018-12-09T09:25:18.568Z,47.20
2018-12-09T09:27:44.679Z,47.10
2018-12-09T09:30:11.146Z,47.10
2018-12-09T09:32:37.377Z,47.10
2018-12-09T09:35:03.659Z,47.00
2018-12-09T09:37:30.339Z,47.00
2018-12-09T09:39:56.844Z,47.00
2018-12-09T09:42:23.213Z,47.10
2018-12-09T09:44:49.525Z,47.10
2018-12-09T09:47:15.838Z,47.10
2018-12-09T09:49:42.110Z,47.30
2018-12-09T09:52:08.203Z,47.50
2018-12-09T09:54:34.484Z,47.50
2018-12-09T09:57:00.681Z,47.50
2018-12-09T09:59:26.720Z,47.50
2018-12-09T10:01:52.844Z,47.60
2018-12-09T10:04:19.515Z,47.80
2018-12-09T10:06:45.640Z,48.00
2018-12-09T10:09:12.291Z,48.30
2018-12-09T10:11:38.351Z,48.10
2018-12-09T10:14:04.692Z,48.10
2018-12-09T10:16:31.099Z,48.10
2018-12-09T10:18:57.493Z,48.10
2018-12-09T10:21:23.956Z,48.20
2018-12-09T10:23:50.033Z,47.70
2018-12-09T10:26:16.269Z,47.80
2018-12-09T10:28:42.305Z,47.50
2018-12-09T10:31:08.443Z,47.10
2018-12-09T10:33:34.443Z,46.80
2018-12-09T10:36:00.779Z,46.40
2018-12-09T10:38:27.742Z,46.30
2018-12-09T10:40:54.153Z,45.90
2018-12-09T10:43:20.297Z,45.60
2018-12-09T10:45:46.687Z,45.40
2018-12-09T10:48:12.930Z,45.10
2018-12-09T10:50:39.293Z,44.80
2018-12-09T10:53:05.637Z,44.70
2018-12-09T10:55:31.735Z,44.60
2018-12-09T10:57:58.065Z,44.50
2018-12-09T11:00:30.451Z,44.90
2018-12-09T11:02:56.573Z,44.20
2018-12-09T11:05:24.788Z,44.70
2018-12-09T11:07:52.500Z,44.30
2018-12-09T11:10:19.912Z,44.30
2018-12-09T11:12:46.959Z,44.40
2018-12-09T11:15:13.464Z,44.40
2018-12-09T11:17:39.601Z,44.50
2018-12-09T11:20:05.921Z,44.80
2018-12-09T11:22:32.162Z,44.70
2018-12-09T11:25:00.690Z,44.90
2018-12-09T11:27:27.340Z,45.10
2018-12-09T11:29:53.479Z,45.20
2018-12-09T11:32:19.726Z,45.20
2018-12-09T11:34:46.296Z,45.20
2018-12-09T11:37:12.302Z,45.40
2018-12-09T11:39:38.312Z,45.50
2018-12-09T11:42:04.674Z,45.50
2018-12-09T11:44:31.270Z,46.20
2018-12-09T11:46:57.380Z,45.70
2018-12-09T11:49:23.634Z,45.60
2018-12-09T11:51:49.681Z,45.80
2018-12-09T11:54:15.771Z,45.80
2018-12-09T11:56:42.013Z,45.30
2018-12-09T11:59:08.085Z,46.00
2018-12-09T12:01:34.305Z,46.10
2018-12-09T12:04:00.786Z,46.10
2018-12-09T12:06:27.057Z,46.20
2018-12-09T12:08:53.216Z,46.20
2018-12-09T12:11:19.735Z,46.30
2018-12-09T12:13:46.054Z,46.20
2018-12-09T12:16:12.338Z,46.20
2018-12-09T12:18:38.673Z,46.20
2018-12-09T12:21:04.734Z,46.30
2018-12-09T12:23:30.856Z,46.30
2018-12-09T12:25:57.143Z,46.30
2018-12-09T12:28:23.275Z,46.50
2018-12-09T12:30:49.402Z,46.40
2018-12-09T12:33:15.406Z,46.30
2018-12-09T12:35:41.448Z,46.30
2018-12-09T12:38:07.701Z,46.30
2018-12-09T12:40:33.688Z,46.30
2018-12-09T12:42:59.702Z,46.20
2018-12-09T12:45:25.678Z,46.40
2018-12-09T12:47:51.934Z,46.30
2018-12-09T12:50:18.105Z,46.40
2018-12-09T12:52:44.334Z,46.40
2018-12-09T12:55:10.438Z,46.50
2018-12-09T12:57:36.578Z,46.50
2018-12-09T13:00:02.719Z,46.50
2018-12-09T13:02:29.206Z,46.60
2018-12-09T13:04:55.339Z,46.60
2018-12-09T13:07:21.689Z,46.70
2018-12-09T13:09:47.784Z,46.80
2018-12-09T13:12:13.773Z,46.70
2018-12-09T13:14:39.931Z,46.80
2018-12-09T13:17:06.247Z,47.00
2018-12-09T13:19:32.593Z,47.20
2018-12-09T13:21:59.786Z,47.10
2018-12-09T13:24:26.887Z,47.20
2018-12-09T13:26:53.393Z,47.10
2018-12-09T13:29:19.807Z,47.10
2018-12-09T13:31:45.822Z,47.70
2018-12-09T13:34:11.904Z,47.10
2018-12-09T13:36:38.258Z,47.00
2018-12-09T13:39:04.754Z,46.40
2018-12-09T13:41:30.765Z,47.00
2018-12-09T13:43:56.793Z,46.90
2018-12-09T13:46:23.074Z,46.90
2018-12-09T13:48:49.098Z,46.80
2018-12-09T13:51:15.359Z,46.80
2018-12-09T13:53:48.638Z,46.60
2018-12-09T13:56:14.897Z,46.70
2018-12-09T13:58:40.878Z,46.60
2018-12-09T14:01:06.923Z,46.70
2018-12-09T14:03:32.900Z,46.60
2018-12-09T14:05:58.886Z,46.60
2018-12-09T14:08:24.941Z,46.60
2018-12-09T14:10:51.005Z,46.60
2018-12-09T14:13:16.999Z,46.60
2018-12-09T14:15:43.005Z,46.50
2018-12-09T14:18:09.000Z,46.50
2018-12-09T14:20:34.959Z,46.40
2018-12-09T14:23:01.048Z,46.40
2018-12-09T14:25:27.047Z,46.40
2018-12-09T14:27:53.036Z,46.30
2018-12-09T14:30:19.136Z,46.30
2018-12-09T14:32:45.158Z,46.30
2018-12-09T14:35:11.112Z,46.30
2018-12-09T14:37:37.128Z,46.30
2018-12-09T14:40:03.217Z,46.30
2018-12-09T14:42:29.339Z,46.20
2018-12-09T14:44:55.497Z,46.20
2018-12-09T14:47:21.759Z,46.10
2018-12-09T14:49:47.941Z,46.20
2018-12-09T14:52:14.162Z,46.10
2018-12-09T14:54:40.493Z,46.10
2018-12-09T14:57:06.843Z,46.00
2018-12-09T14:59:33.890Z,45.90
2018-12-09T15:02:00.208Z,45.90
2018-12-09T15:04:26.428Z,45.80
2018-12-09T15:06:52.517Z,45.80
2018-12-09T15:09:18.806Z,45.70
2018-12-09T15:11:45.273Z,45.60
2018-12-09T15:14:11.325Z,45.40
2018-12-09T15:16:37.819Z,45.10
2018-12-09T15:19:03.964Z,44.70
2018-12-09T15:21:30.188Z,44.60
2018-12-09T15:23:56.293Z,44.50
2018-12-09T15:26:22.493Z,44.30
2018-12-09T15:28:48.650Z,44.20
2018-12-09T15:31:14.729Z,44.20
2018-12-09T15:33:40.842Z,44.00
2018-12-09T15:36:06.949Z,44.00
2018-12-09T15:38:33.452Z,44.00
2018-12-09T15:40:59.670Z,43.90
2018-12-09T15:43:25.665Z,43.90
2018-12-09T15:45:52.017Z,43.90
2018-12-09T15:48:18.259Z,43.90
2018-12-09T15:50:44.899Z,43.90
2018-12-09T15:53:11.179Z,44.00
2018-12-09T15:55:37.345Z,43.90
2018-12-09T15:58:03.624Z,43.90
2018-12-09T16:00:31.887Z,44.00
2018-12-09T16:02:57.955Z,44.00
2018-12-09T16:05:24.117Z,44.00
2018-12-09T16:07:50.293Z,44.00
2018-12-09T16:10:16.303Z,44.00
2018-12-09T16:12:42.293Z,44.00
2018-12-09T16:15:08.330Z,43.90
2018-12-09T16:17:34.684Z,44.00
2018-12-09T16:20:00.874Z,44.00
2018-12-09T16:22:26.874Z,44.10
2018-12-09T16:24:53.087Z,44.10
2018-12-09T16:27:19.355Z,44.10
2018-12-09T16:29:45.622Z,44.40
2018-12-09T16:32:11.875Z,44.70
2018-12-09T16:34:37.897Z,45.40
2018-12-09T16:37:04.048Z,44.80
2018-12-09T16:39:30.971Z,44.80
2018-12-09T16:41:56.986Z,44.90
2018-12-09T16:44:23.399Z,44.90
2018-12-09T16:46:49.725Z,45.20
2018-12-09T16:49:15.969Z,45.90
2018-12-09T16:51:42.115Z,45.40
2018-12-09T16:54:08.408Z,45.50
2018-12-09T16:56:34.490Z,45.50
2018-12-09T16:59:00.532Z,45.60
2018-12-09T17:01:26.567Z,45.60
2018-12-09T17:03:52.651Z,45.70
2018-12-09T17:06:18.681Z,45.60
2018-12-09T17:08:44.683Z,45.60
2018-12-09T17:11:10.673Z,45.50
2018-12-09T17:13:36.654Z,45.50
2018-12-09T17:16:02.672Z,45.50
2018-12-09T17:18:28.653Z,45.70
2018-12-09T17:20:54.629Z,46.30
2018-12-09T17:23:20.623Z,46.00
2018-12-09T17:25:46.639Z,46.00
2018-12-09T17:28:13.016Z,46.00
2018-12-09T17:30:39.248Z,46.00
2018-12-09T17:33:05.524Z,46.00
2018-12-09T17:35:31.553Z,46.80
2018-12-09T17:37:57.727Z,46.30
2018-12-09T17:40:24.042Z,46.30
2018-12-09T17:42:50.473Z,46.50
2018-12-09T17:45:16.892Z,46.40
2018-12-09T17:47:42.947Z,46.50
2018-12-09T17:50:09.230Z,46.90
2018-12-09T17:52:35.506Z,46.30
2018-12-09T17:55:01.603Z,46.30
2018-12-09T17:57:28.538Z,46.30
2018-12-09T17:59:54.941Z,46.30
2018-12-09T18:02:21.301Z,46.30
2018-12-09T18:04:47.471Z,46.30
2018-12-09T18:07:13.479Z,46.30
2018-12-09T18:09:40.270Z,46.30
2018-12-09T18:12:06.451Z,46.30
2018-12-09T18:14:32.583Z,46.30
2018-12-09T18:16:59.148Z,46.10
2018-12-09T18:19:25.651Z,46.10
2018-12-09T18:21:51.673Z,46.10
2018-12-09T18:24:18.085Z,46.10
2018-12-09T18:26:44.429Z,46.10
2018-12-09T18:29:10.710Z,46.00
2018-12-09T18:31:37.203Z,46.00
2018-12-09T18:34:03.360Z,46.00
2018-12-09T18:36:30.252Z,45.90
2018-12-09T18:38:56.312Z,46.00
2018-12-09T18:41:22.308Z,45.80
2018-12-09T18:43:48.315Z,45.80
2018-12-09T18:46:14.924Z,45.90
2018-12-09T18:48:41.409Z,45.70
2018-12-09T18:51:07.971Z,45.50
2018-12-09T18:53:34.132Z,45.30
2018-12-09T18:56:00.312Z,45.20
2018-12-09T18:58:26.747Z,45.20
2018-12-09T19:00:52.880Z,45.20
2018-12-09T19:03:19.117Z,45.20
2018-12-09T19:05:45.100Z,45.30
2018-12-09T19:08:11.147Z,45.10
2018-12-09T19:10:37.121Z,45.20
2018-12-09T19:13:03.116Z,45.10
2018-12-09T19:15:29.118Z,45.20
2018-12-09T19:17:55.112Z,45.20
2018-12-09T19:20:21.098Z,45.30
2018-12-09T19:22:47.127Z,45.40
2018-12-09T19:25:13.130Z,45.40
2018-12-09T19:27:39.106Z,45.50
2018-12-09T19:30:05.071Z,45.40
2018-12-09T19:32:31.212Z,45.50
2018-12-09T19:34:57.213Z,45.50
2018-12-09T19:37:23.209Z,45.50
2018-12-09T19:39:49.218Z,45.60
2018-12-09T19:42:15.213Z,45.60
2018-12-09T19:44:41.210Z,45.60
2018-12-09T19:47:07.216Z,45.60
2018-12-09T19:49:33.386Z,45.50
2018-12-09T19:51:59.355Z,45.60
2018-12-09T19:54:25.336Z,45.60
2018-12-09T19:56:51.349Z,45.50
2018-12-09T19:59:17.314Z,45.50
2018-12-09T20:01:43.316Z,45.60
2018-12-09T20:04:09.312Z,45.50
2018-12-09T20:06:35.345Z,45.50
2018-12-09T20:09:01.352Z,45.50
2018-12-09T20:11:27.340Z,45.40
2018-12-09T20:13:53.321Z,45.40
2018-12-09T20:16:19.323Z,45.30
2018-12-09T20:18:45.312Z,45.20
2018-12-09T20:21:11.320Z,45.30
2018-12-09T20:23:37.306Z,45.20
2018-12-09T20:26:03.293Z,45.80
2018-12-09T20:28:29.274Z,45.10
2018-12-09T20:30:55.297Z,45.10
2018-12-09T20:33:21.292Z,45.10
2018-12-09T20:35:47.438Z,45.20
2018-12-09T20:38:13.461Z,45.20
2018-12-09T20:40:39.468Z,45.10
2018-12-09T20:43:05.478Z,45.10
2018-12-09T20:45:31.532Z,44.90
2018-12-09T20:47:57.575Z,44.90
2018-12-09T20:50:23.552Z,44.80
2018-12-09T20:52:49.517Z,44.80
2018-12-09T20:55:15.499Z,44.80
2018-12-09T20:57:41.520Z,44.70
2018-12-09T21:00:07.537Z,44.70
2018-12-09T21:02:33.523Z,44.60
2018-12-09T21:04:59.561Z,44.70
2018-12-09T21:07:25.580Z,44.70
2018-12-09T21:09:52.479Z,44.70
2018-12-09T21:12:18.479Z,44.80
2018-12-09T21:14:44.445Z,44.90
2018-12-09T21:17:10.427Z,45.10
2018-12-09T21:19:37.237Z,45.20
2018-12-09T21:22:03.237Z,45.20
2018-12-09T21:24:29.201Z,45.10
2018-12-09T21:26:55.193Z,45.10
2018-12-09T21:29:21.177Z,45.10
2018-12-09T21:31:47.317Z,45.10
2018-12-09T21:34:13.339Z,45.10
2018-12-09T21:36:39.330Z,45.10
2018-12-09T21:39:05.296Z,45.10
2018-12-09T21:41:31.288Z,45.10
2018-12-09T21:43:57.253Z,45.00
2018-12-09T21:46:23.359Z,45.00
2018-12-09T21:48:49.344Z,44.90
2018-12-09T21:51:15.330Z,45.00
2018-12-09T21:53:41.315Z,45.00
2018-12-09T21:56:07.306Z,45.00
2018-12-09T21:58:33.296Z,45.10
2018-12-09T22:00:59.265Z,45.10
2018-12-09T22:03:25.281Z,45.10
2018-12-09T22:05:51.280Z,45.10
2018-12-09T22:08:17.270Z,45.10
2018-12-09T22:10:43.245Z,45.10
2018-12-09T22:13:09.227Z,45.20
2018-12-09T22:15:35.212Z,45.10
2018-12-09T22:18:01.196Z,45.00
2018-12-09T22:20:27.175Z,45.10
2018-12-09T22:22:53.145Z,44.50
2018-12-09T22:25:19.124Z,45.00
2018-12-09T22:27:45.099Z,44.90
2018-12-09T22:30:11.109Z,45.10
2018-12-09T22:32:37.087Z,45.00
2018-12-09T22:35:03.105Z,45.00
2018-12-09T22:37:29.084Z,45.10
2018-12-09T22:39:55.070Z,45.10
2018-12-09T22:42:21.091Z,45.10
2018-12-09T22:44:47.086Z,45.10
2018-12-09T22:47:13.059Z,45.20
2018-12-09T22:49:39.618Z,45.30
2018-12-09T22:52:05.621Z,46.00
2018-12-09T22:54:31.597Z,45.30
2018-12-09T22:56:57.582Z,45.30
2018-12-09T22:59:23.594Z,45.30
2018-12-09T23:04:51.687Z,45.20
2018-12-09T23:10:18.312Z,45.20
2018-12-09T23:12:44.295Z,45.20
2018-12-09T23:15:10.253Z,45.30
2018-12-09T23:17:36.235Z,45.30
2018-12-09T23:20:02.194Z,45.20
2018-12-09T23:22:28.159Z,45.30
2018-12-09T23:24:54.131Z,45.30
2018-12-09T23:27:20.080Z,45.30
2018-12-09T23:29:46.088Z,45.30
2018-12-09T23:32:12.073Z,45.40
2018-12-09T23:34:38.049Z,45.40
2018-12-09T23:37:04.063Z,45.40
2018-12-09T23:39:30.063Z,45.50
2018-12-09T23:41:56.037Z,45.30
2018-12-09T23:44:22.003Z,45.40
2018-12-09T23:46:47.986Z,45.40
2018-12-09T23:49:13.979Z,45.40
2018-12-09T23:51:39.985Z,45.40
2018-12-09T23:54:05.963Z,45.40
2018-12-09T23:56:31.938Z,45.40
2018-12-09T23:58:57.942Z,45.40
